createdAt,value
2023-05-03T00:02:07.686Z,9.80
2023-05-03T00:04:34.690Z,9.90
2023-05-03T00:07:01.779Z,9.90
2023-05-03T00:09:28.491Z,10.00
2023-05-03T00:11:55.254Z,9.90
2023-05-03T00:14:21.968Z,10.00
2023-05-03T00:16:48.685Z,10.10
2023-05-03T00:19:30.488Z,10.00
2023-05-03T00:21:57.964Z,9.90
2023-05-03T00:24:24.648Z,9.90
2023-05-03T00:26:51.297Z,9.80
2023-05-03T00:29:21.035Z,9.80
2023-05-03T00:31:47.698Z,9.80
2023-05-03T00:34:14.370Z,9.70
2023-05-03T00:36:40.977Z,9.70
2023-05-03T00:39:07.644Z,9.60
2023-05-03T00:41:34.345Z,9.80
2023-05-03T00:44:01.051Z,9.80
2023-05-03T00:46:28.136Z,9.70
2023-05-03T00:48:55.417Z,9.70
2023-05-03T00:51:23.278Z,9.60
2023-05-03T00:53:50.361Z,9.60
2023-05-03T00:56:25.820Z,9.60
2023-05-03T00:58:52.664Z,9.50
2023-05-03T01:01:19.646Z,9.60
2023-05-03T01:03:47.370Z,9.60
2023-05-03T01:06:16.979Z,9.40
2023-05-03T01:09:10.160Z,9.30
2023-05-03T01:12:00.947Z,9.20
2023-05-03T01:15:07.456Z,9.30
2023-05-03T01:17:50.490Z,9.40
2023-05-03T01:20:26.218Z,9.30
2023-05-03T01:22:58.961Z,9.30
2023-05-03T01:25:28.969Z,9.20
2023-05-03T01:27:55.877Z,9.20
2023-05-03T01:30:26.680Z,9.10
2023-05-03T01:32:56.521Z,9.10
2023-05-03T01:35:29.429Z,9.20
2023-05-03T01:37:57.780Z,9.20
2023-05-03T01:40:26.849Z,9.00
2023-05-03T01:42:55.607Z,9.00
2023-05-03T01:45:23.080Z,8.90
2023-05-03T01:47:49.957Z,9.00
2023-05-03T01:50:16.839Z,9.00
2023-05-03T01:52:45.127Z,9.00
2023-05-03T01:55:11.861Z,8.90
2023-05-03T01:57:38.495Z,8.80
2023-05-03T02:00:06.858Z,8.90
2023-05-03T02:02:39.507Z,8.90
2023-05-03T02:05:06.687Z,8.80
2023-05-03T02:07:33.911Z,8.90
2023-05-03T02:10:01.162Z,8.90
2023-05-03T02:12:28.065Z,8.70
2023-05-03T02:14:54.860Z,8.70
2023-05-03T02:17:21.999Z,8.70
2023-05-03T02:19:48.743Z,8.60
2023-05-03T02:22:15.374Z,8.60
2023-05-03T02:24:43.269Z,8.60
2023-05-03T02:27:10.051Z,8.70
2023-05-03T02:29:37.734Z,8.60
2023-05-03T02:32:05.699Z,8.70
2023-05-03T02:34:33.076Z,8.60
2023-05-03T02:37:00.494Z,8.70
2023-05-03T02:39:27.478Z,8.70
2023-05-03T02:41:54.674Z,8.70
2023-05-03T02:44:21.513Z,8.50
2023-05-03T02:46:48.274Z,8.40
2023-05-03T02:49:17.044Z,8.30
2023-05-03T02:51:43.794Z,8.40
2023-05-03T02:54:10.481Z,8.30
2023-05-03T02:56:38.107Z,8.20
2023-05-03T02:59:04.807Z,8.20
2023-05-03T03:01:34.097Z,8.50
2023-05-03T03:04:01.092Z,8.50
2023-05-03T03:06:28.205Z,8.40
2023-05-03T03:08:55.293Z,8.40
2023-05-03T03:11:22.268Z,8.20
2023-05-03T03:13:48.983Z,8.00
2023-05-03T03:16:15.891Z,7.90
2023-05-03T03:18:43.090Z,7.90
2023-05-03T03:21:09.832Z,7.70
2023-05-03T03:23:37.074Z,7.70
2023-05-03T03:26:03.947Z,7.80
2023-05-03T03:28:30.697Z,7.90
2023-05-03T03:31:00.504Z,8.10
2023-05-03T03:33:27.208Z,7.90
2023-05-03T03:36:00.280Z,8.10
2023-05-03T03:38:31.872Z,8.00
2023-05-03T03:41:03.287Z,8.00
2023-05-03T03:43:30.077Z,7.90
2023-05-03T03:45:57.796Z,7.90
2023-05-03T03:48:24.642Z,8.00
2023-05-03T03:50:51.676Z,8.10
2023-05-03T03:53:20.736Z,8.10
2023-05-03T03:55:47.570Z,8.10
2023-05-03T03:58:16.552Z,8.00
2023-05-03T04:00:43.834Z,7.90
2023-05-03T04:03:15.879Z,7.80
2023-05-03T04:05:42.877Z,7.70
2023-05-03T04:08:09.711Z,7.80
2023-05-03T04:10:37.855Z,7.60
2023-05-03T04:13:05.287Z,7.60
2023-05-03T04:15:32.558Z,7.40
2023-05-03T04:18:01.012Z,7.50
2023-05-03T04:20:28.054Z,7.30
2023-05-03T04:22:55.329Z,7.40
2023-05-03T04:25:25.980Z,7.50
2023-05-03T04:27:59.157Z,7.60
2023-05-03T04:30:29.323Z,7.50
2023-05-03T04:33:00.615Z,7.60
2023-05-03T04:35:29.468Z,7.50
2023-05-03T04:37:58.037Z,7.50
2023-05-03T04:40:26.830Z,7.60
2023-05-03T04:43:01.249Z,7.50
2023-05-03T04:45:31.868Z,7.50
2023-05-03T04:47:58.979Z,7.60
2023-05-03T04:50:26.035Z,7.70
2023-05-03T04:52:52.679Z,7.80
2023-05-03T04:55:21.261Z,7.80
2023-05-03T04:57:48.333Z,8.00
2023-05-03T05:00:16.465Z,8.20
2023-05-03T05:02:48.685Z,8.30
2023-05-03T05:05:18.097Z,8.40
2023-05-03T05:07:47.126Z,8.50
2023-05-03T05:10:14.672Z,8.50
2023-05-03T05:12:42.810Z,8.40
2023-05-03T05:15:10.038Z,8.60
2023-05-03T05:17:37.014Z,8.40
2023-05-03T05:20:08.000Z,8.50
2023-05-03T05:22:34.843Z,8.50
2023-05-03T05:25:02.215Z,8.60
2023-05-03T05:27:29.414Z,8.50
2023-05-03T05:29:57.933Z,8.40
2023-05-03T05:32:24.601Z,8.50
2023-05-03T05:34:55.258Z,8.50
2023-05-03T05:37:24.506Z,8.50
2023-05-03T05:39:51.614Z,8.40
2023-05-03T05:42:20.025Z,8.20
2023-05-03T05:44:46.703Z,8.20
2023-05-03T05:47:13.788Z,8.40
2023-05-03T05:49:43.612Z,8.50
2023-05-03T05:52:11.642Z,8.80
2023-05-03T05:54:38.573Z,8.80
2023-05-03T05:57:06.298Z,8.80
2023-05-03T05:59:37.636Z,8.80
2023-05-03T06:02:04.657Z,8.70
2023-05-03T06:04:37.397Z,8.90
2023-05-03T06:07:04.892Z,9.10
2023-05-03T06:09:31.922Z,9.20
2023-05-03T06:12:02.711Z,9.20
2023-05-03T06:14:33.299Z,9.20
2023-05-03T06:17:00.585Z,9.30
2023-05-03T06:19:30.547Z,9.40
2023-05-03T06:21:57.786Z,9.60
2023-05-03T06:24:24.631Z,9.50
2023-05-03T06:26:54.427Z,9.60
2023-05-03T06:29:21.474Z,9.70
2023-05-03T06:31:48.713Z,9.40
2023-05-03T06:34:20.086Z,9.40
2023-05-03T06:36:47.315Z,9.40
2023-05-03T06:39:14.059Z,9.50
2023-05-03T06:41:40.728Z,9.60
2023-05-03T06:44:07.571Z,9.60
2023-05-03T06:46:36.774Z,9.60
2023-05-03T06:49:04.327Z,9.60
2023-05-03T06:51:34.565Z,9.50
2023-05-03T06:54:06.766Z,9.60
2023-05-03T06:56:34.204Z,9.70
2023-05-03T06:59:01.229Z,9.80
2023-05-03T07:01:28.197Z,9.90
2023-05-03T07:03:55.070Z,10.00
2023-05-03T07:06:23.502Z,10.10
2023-05-03T07:08:54.588Z,10.00
2023-05-03T07:11:27.739Z,10.00
2023-05-03T07:13:54.707Z,10.20
2023-05-03T07:16:22.473Z,10.10
2023-05-03T07:18:49.429Z,10.10
2023-05-03T07:21:16.204Z,10.10
2023-05-03T07:23:46.401Z,10.10
2023-05-03T07:26:13.363Z,10.30
2023-05-03T07:28:40.023Z,10.20
2023-05-03T07:31:06.763Z,10.00
2023-05-03T07:33:37.572Z,10.00
2023-05-03T07:36:05.658Z,10.20
2023-05-03T07:38:34.031Z,10.10
2023-05-03T07:41:00.937Z,10.20
2023-05-03T07:43:27.651Z,10.30
2023-05-03T07:45:54.310Z,10.50
2023-05-03T07:48:21.028Z,10.40
2023-05-03T07:50:47.754Z,10.60
2023-05-03T07:53:14.659Z,10.50
2023-05-03T07:55:42.213Z,10.70
2023-05-03T07:58:09.498Z,10.80
2023-05-03T08:00:36.405Z,10.90
2023-05-03T08:03:06.032Z,11.10
2023-05-03T08:05:36.485Z,11.20
2023-05-03T08:08:04.082Z,11.10
2023-05-03T08:10:38.539Z,11.20
2023-05-03T08:13:09.614Z,11.40
2023-05-03T08:15:54.930Z,11.70
2023-05-03T08:18:23.688Z,11.60
2023-05-03T08:20:50.800Z,11.70
2023-05-03T08:23:17.772Z,11.80
2023-05-03T08:25:45.588Z,11.70
2023-05-03T08:28:12.653Z,12.00
2023-05-03T08:30:40.058Z,12.10
2023-05-03T08:33:10.168Z,12.30
2023-05-03T08:35:37.615Z,12.40
2023-05-03T08:38:05.135Z,12.50
2023-05-03T08:40:37.442Z,12.60
2023-05-03T08:43:10.099Z,12.70
2023-05-03T08:45:41.053Z,12.70
2023-05-03T08:48:08.406Z,12.50
2023-05-03T08:50:41.961Z,12.60
2023-05-03T08:53:10.822Z,12.60
2023-05-03T08:55:38.390Z,12.70
2023-05-03T08:58:12.406Z,12.90
2023-05-03T09:00:45.447Z,13.10
2023-05-03T09:03:18.261Z,13.20
2023-05-03T09:05:46.572Z,13.20
2023-05-03T09:08:15.048Z,13.20
2023-05-03T09:10:43.263Z,13.00
2023-05-03T09:13:11.851Z,13.10
2023-05-03T09:15:38.593Z,13.30
2023-05-03T09:18:21.626Z,13.30
2023-05-03T09:20:52.997Z,13.60
2023-05-03T09:23:26.378Z,13.90
2023-05-03T09:25:56.331Z,14.20
2023-05-03T09:28:23.615Z,14.40
2023-05-03T09:31:05.428Z,14.40
2023-05-03T09:33:37.401Z,14.30
2023-05-03T09:36:05.496Z,14.10
2023-05-03T09:38:39.717Z,14.10
2023-05-03T09:41:06.877Z,14.10
2023-05-03T09:43:39.295Z,14.20
2023-05-03T09:46:13.813Z,14.30
2023-05-03T09:48:43.323Z,14.40
2023-05-03T09:51:11.760Z,14.80
2023-05-03T09:53:39.974Z,15.10
2023-05-03T09:56:10.382Z,15.10
2023-05-03T09:58:37.427Z,14.90
2023-05-03T10:01:04.445Z,14.90
2023-05-03T10:03:47.687Z,15.00
2023-05-03T10:06:33.718Z,15.30
2023-05-03T10:09:18.684Z,15.80
2023-05-03T10:11:52.157Z,16.20
2023-05-03T10:14:26.452Z,16.50
2023-05-03T10:17:02.423Z,16.60
2023-05-03T10:19:35.098Z,16.50
2023-05-03T10:22:11.374Z,16.50
2023-05-03T10:25:04.498Z,16.70
2023-05-03T10:27:43.490Z,16.90
2023-05-03T10:30:28.482Z,16.70
2023-05-03T10:32:56.083Z,16.30
2023-05-03T10:35:27.779Z,16.50
2023-05-03T10:37:58.725Z,17.00
2023-05-03T10:40:42.160Z,17.30
2023-05-03T10:43:29.056Z,17.40
2023-05-03T10:46:11.921Z,17.60
2023-05-03T10:48:38.618Z,17.30
2023-05-03T10:51:32.966Z,17.20
2023-05-03T10:53:59.839Z,17.60
2023-05-03T10:56:26.587Z,18.10
2023-05-03T10:58:56.821Z,18.30
2023-05-03T11:01:24.772Z,18.30
2023-05-03T11:04:07.814Z,18.30
2023-05-03T11:06:37.129Z,18.50
2023-05-03T11:09:06.689Z,18.70
2023-05-03T11:11:35.109Z,18.90
2023-05-03T11:14:01.867Z,19.20
2023-05-03T11:16:29.080Z,19.40
2023-05-03T11:18:56.128Z,19.60
2023-05-03T11:21:23.516Z,19.60
2023-05-03T11:23:50.149Z,19.50
2023-05-03T11:26:16.918Z,19.60
2023-05-03T11:28:44.283Z,19.70
2023-05-03T11:31:13.420Z,19.80
2023-05-03T11:33:41.515Z,20.00
2023-05-03T11:36:10.093Z,20.00
2023-05-03T11:38:39.930Z,20.00
2023-05-03T11:41:16.598Z,20.10
2023-05-03T11:43:50.891Z,19.90
2023-05-03T11:46:25.404Z,19.70
2023-05-03T11:48:52.973Z,19.90
2023-05-03T11:51:24.063Z,20.00
2023-05-03T11:53:51.843Z,19.70
2023-05-03T11:56:20.674Z,19.80
2023-05-03T11:59:00.108Z,19.90
2023-05-03T12:01:30.697Z,20.20
2023-05-03T12:04:03.608Z,20.30
2023-05-03T12:06:35.199Z,20.50
2023-05-03T12:09:03.845Z,20.60
2023-05-03T12:11:48.059Z,20.80
2023-05-03T12:14:16.171Z,20.50
2023-05-03T12:16:52.630Z,20.10
2023-05-03T12:19:33.322Z,19.80
2023-05-03T12:22:18.217Z,19.50
2023-05-03T12:24:49.751Z,19.30
2023-05-03T12:27:18.977Z,19.40
2023-05-03T12:29:47.369Z,19.50
2023-05-03T12:32:15.144Z,19.80
2023-05-03T12:34:42.837Z,20.20
2023-05-03T12:37:11.856Z,20.20
2023-05-03T12:39:40.081Z,20.30
2023-05-03T12:42:08.802Z,20.30
2023-05-03T12:44:42.424Z,20.60
2023-05-03T12:47:10.442Z,20.60
2023-05-03T12:49:39.145Z,20.20
2023-05-03T12:52:35.298Z,20.10
2023-05-03T12:55:02.801Z,20.00
2023-05-03T12:57:31.303Z,19.80
2023-05-03T13:00:02.664Z,19.90
2023-05-03T13:05:01.466Z,20.20
2023-05-03T13:07:31.631Z,20.50
2023-05-03T13:12:32.467Z,20.70
2023-05-03T13:15:00.882Z,21.00
2023-05-03T13:17:27.794Z,21.10
2023-05-03T13:19:54.537Z,20.80
2023-05-03T13:22:22.156Z,21.00
2023-05-03T13:24:49.244Z,21.00
2023-05-03T13:27:16.556Z,21.20
2023-05-03T13:29:43.544Z,21.20
2023-05-03T13:32:10.561Z,21.00
2023-05-03T13:34:37.468Z,20.80
2023-05-03T13:37:04.777Z,20.10
2023-05-03T13:39:32.123Z,20.10
2023-05-03T13:41:59.261Z,20.10
2023-05-03T13:44:26.212Z,20.10
2023-05-03T13:46:53.624Z,20.20
2023-05-03T13:49:20.640Z,20.40
2023-05-03T13:51:47.733Z,20.60
2023-05-03T13:54:14.628Z,21.00
2023-05-03T13:56:42.995Z,21.20
2023-05-03T13:59:13.709Z,21.10
2023-05-03T14:01:42.957Z,21.40
2023-05-03T14:04:10.301Z,21.40
2023-05-03T14:06:40.338Z,21.40
2023-05-03T14:09:09.324Z,21.70
2023-05-03T14:11:36.136Z,21.40
2023-05-03T14:14:03.418Z,21.40
2023-05-03T14:19:00.285Z,21.40
2023-05-03T14:21:42.527Z,21.30
2023-05-03T14:24:11.548Z,21.30
2023-05-03T14:26:38.339Z,21.50
2023-05-03T14:29:05.852Z,21.40
2023-05-03T14:31:33.901Z,21.10
2023-05-03T14:34:01.076Z,20.80
2023-05-03T14:36:35.810Z,20.80
2023-05-03T14:39:04.295Z,20.60
2023-05-03T14:41:33.052Z,20.60
2023-05-03T14:43:59.895Z,20.50
2023-05-03T14:46:26.783Z,20.60
2023-05-03T14:48:53.678Z,20.60
2023-05-03T14:51:20.612Z,20.80
2023-05-03T14:53:47.400Z,21.10
2023-05-03T14:56:14.319Z,21.10
2023-05-03T14:58:41.081Z,21.20
2023-05-03T15:01:07.965Z,20.90
2023-05-03T15:03:34.979Z,20.60
2023-05-03T15:06:01.722Z,20.40
2023-05-03T15:08:29.202Z,20.20
2023-05-03T15:10:56.077Z,20.20
2023-05-03T15:13:24.355Z,20.40
2023-05-03T15:15:52.043Z,20.50
2023-05-03T15:18:20.258Z,20.40
2023-05-03T15:20:47.397Z,20.40
2023-05-03T15:23:14.075Z,20.60
2023-05-03T15:25:40.825Z,20.70
2023-05-03T15:28:07.565Z,20.90
2023-05-03T15:30:34.264Z,20.80
2023-05-03T15:33:01.828Z,20.40
2023-05-03T15:35:28.568Z,20.20
2023-05-03T15:37:55.241Z,20.20
2023-05-03T15:40:25.136Z,20.10
2023-05-03T15:42:53.463Z,20.10
2023-05-03T15:45:23.014Z,20.20
2023-05-03T15:47:49.733Z,20.30
2023-05-03T15:50:16.503Z,20.50
2023-05-03T15:52:43.312Z,20.80
2023-05-03T15:55:10.134Z,20.70
2023-05-03T15:57:37.135Z,20.50
2023-05-03T16:00:09.468Z,20.30
2023-05-03T16:02:36.199Z,20.40
2023-05-03T16:05:03.042Z,20.10
2023-05-03T16:07:30.068Z,19.70
2023-05-03T16:09:57.213Z,19.60
2023-05-03T16:12:24.594Z,19.60
2023-05-03T16:14:51.404Z,19.50
2023-05-03T16:17:18.361Z,19.60
2023-05-03T16:19:45.159Z,19.70
2023-05-03T16:22:12.059Z,19.70
2023-05-03T16:24:38.888Z,19.60
2023-05-03T16:27:06.165Z,19.60
2023-05-03T16:29:33.798Z,19.60
2023-05-03T16:32:01.067Z,19.40
2023-05-03T16:34:27.963Z,19.30
2023-05-03T16:36:54.574Z,19.30
2023-05-03T16:39:21.415Z,19.40
2023-05-03T16:41:48.044Z,19.10
2023-05-03T16:44:18.339Z,19.00
2023-05-03T16:46:45.900Z,19.00
2023-05-03T16:49:12.577Z,18.90
2023-05-03T16:51:40.741Z,18.70
2023-05-03T16:54:07.452Z,18.60
2023-05-03T16:56:34.635Z,18.70
2023-05-03T16:59:02.887Z,18.60
2023-05-03T17:01:29.621Z,18.60
2023-05-03T17:03:56.897Z,18.50
2023-05-03T17:06:23.870Z,18.50
2023-05-03T17:08:51.255Z,18.50
2023-05-03T17:11:18.206Z,18.50
2023-05-03T17:13:45.085Z,18.40
2023-05-03T17:16:15.164Z,18.20
2023-05-03T17:18:42.442Z,18.10
2023-05-03T17:21:10.417Z,18.10
2023-05-03T17:23:39.253Z,18.10
2023-05-03T17:26:08.568Z,18.10
2023-05-03T17:28:35.897Z,18.00
2023-05-03T17:31:03.525Z,17.90
2023-05-03T17:33:30.379Z,17.80
2023-05-03T17:35:57.144Z,17.70
2023-05-03T17:38:31.906Z,17.70
2023-05-03T17:41:08.882Z,17.60
2023-05-03T17:43:37.074Z,17.40
2023-05-03T17:46:08.887Z,17.30
2023-05-03T17:48:40.186Z,17.50
2023-05-03T17:51:07.682Z,17.40
2023-05-03T17:53:34.485Z,17.10
2023-05-03T17:56:01.188Z,17.10
2023-05-03T17:58:28.212Z,16.90
2023-05-03T18:00:56.992Z,16.80
2023-05-03T18:03:24.157Z,16.70
2023-05-03T18:05:50.968Z,16.70
2023-05-03T18:08:17.705Z,16.60
2023-05-03T18:10:45.427Z,16.50
2023-05-03T18:13:12.733Z,16.30
2023-05-03T18:15:41.812Z,16.20
2023-05-03T18:18:09.282Z,16.10
2023-05-03T18:20:36.557Z,16.10
2023-05-03T18:23:06.697Z,16.10
2023-05-03T18:25:41.202Z,16.10
2023-05-03T18:28:11.251Z,16.10
2023-05-03T18:30:38.192Z,16.10
2023-05-03T18:33:05.232Z,16.00
2023-05-03T18:35:35.741Z,15.90
2023-05-03T18:38:03.626Z,15.90
2023-05-03T18:40:30.631Z,15.90
2023-05-03T18:42:57.700Z,15.90
2023-05-03T18:45:25.394Z,15.80
2023-05-03T18:47:52.124Z,15.70
2023-05-03T18:50:19.148Z,15.60
2023-05-03T18:52:47.750Z,15.50
2023-05-03T18:55:21.195Z,15.40
2023-05-03T18:57:48.594Z,15.20
2023-05-03T19:00:18.030Z,15.20
2023-05-03T19:02:45.375Z,15.20
2023-05-03T19:05:13.526Z,15.10
2023-05-03T19:07:42.997Z,15.00
2023-05-03T19:10:10.673Z,15.00
2023-05-03T19:12:37.408Z,14.60
2023-05-03T19:15:04.371Z,14.50
2023-05-03T19:17:31.040Z,14.50
2023-05-03T19:19:58.738Z,14.50
2023-05-03T19:22:25.456Z,14.50
2023-05-03T19:24:52.100Z,14.50
2023-05-03T19:27:18.764Z,14.40
2023-05-03T19:29:45.585Z,14.40
2023-05-03T19:32:12.230Z,14.30
2023-05-03T19:34:38.983Z,14.30
2023-05-03T19:37:07.386Z,14.30
2023-05-03T19:39:35.690Z,14.00
2023-05-03T19:42:02.456Z,13.80
2023-05-03T19:44:33.527Z,13.90
2023-05-03T19:47:00.672Z,13.90
2023-05-03T19:49:27.340Z,13.80
2023-05-03T19:51:55.779Z,13.70
2023-05-03T19:54:23.161Z,13.70
2023-05-03T19:56:50.238Z,13.60
2023-05-03T19:59:16.928Z,13.50
2023-05-03T20:01:45.230Z,13.40
2023-05-03T20:04:12.840Z,13.30
2023-05-03T20:06:39.744Z,13.20
2023-05-03T20:09:06.462Z,13.20
2023-05-03T20:11:33.722Z,13.00
2023-05-03T20:14:01.170Z,12.80
2023-05-03T20:16:35.364Z,12.70
2023-05-03T20:19:01.989Z,12.70
2023-05-03T20:21:36.030Z,12.60
2023-05-03T20:24:04.762Z,12.60
2023-05-03T20:26:31.679Z,12.80
2023-05-03T20:28:58.524Z,12.90
2023-05-03T20:31:25.436Z,12.70
2023-05-03T20:33:52.161Z,12.80
2023-05-03T20:36:19.100Z,12.70
2023-05-03T20:38:45.779Z,12.70
2023-05-03T20:41:13.157Z,12.60
2023-05-03T20:43:39.991Z,12.70
2023-05-03T20:46:07.020Z,12.70
2023-05-03T20:48:35.956Z,12.70
2023-05-03T20:51:02.814Z,12.80
2023-05-03T20:53:29.510Z,12.70
2023-05-03T20:55:56.867Z,12.70
2023-05-03T20:58:23.652Z,12.60
2023-05-03T21:00:56.044Z,12.40
2023-05-03T21:03:25.430Z,12.20
2023-05-03T21:05:53.210Z,12.20
2023-05-03T21:08:20.348Z,12.20
2023-05-03T21:10:47.204Z,12.10
2023-05-03T21:13:14.154Z,12.10
2023-05-03T21:15:42.390Z,12.10
2023-05-03T21:18:12.157Z,12.00
2023-05-03T21:20:39.091Z,12.10
2023-05-03T21:23:05.991Z,12.00
2023-05-03T21:25:33.053Z,12.00
2023-05-03T21:27:59.734Z,12.00
2023-05-03T21:30:26.429Z,12.00
2023-05-03T21:32:53.242Z,11.70
2023-05-03T21:35:20.500Z,11.50
2023-05-03T21:37:48.013Z,11.50
2023-05-03T21:40:15.559Z,11.50
2023-05-03T21:42:43.264Z,11.50
2023-05-03T21:45:11.349Z,11.60
2023-05-03T21:47:38.250Z,11.60
2023-05-03T21:50:06.263Z,11.40
2023-05-03T21:52:33.649Z,11.30
2023-05-03T21:55:00.684Z,11.30
2023-05-03T21:57:27.642Z,11.20
2023-05-03T21:59:55.438Z,11.10
2023-05-03T22:02:22.713Z,11.20
2023-05-03T22:04:50.481Z,11.00
2023-05-03T22:07:17.640Z,11.00
2023-05-03T22:09:48.580Z,10.90
2023-05-03T22:14:54.628Z,10.80
2023-05-03T22:17:28.906Z,10.80
2023-05-03T22:19:55.851Z,10.80
2023-05-03T22:22:22.482Z,10.90
2023-05-03T22:24:49.119Z,10.70
2023-05-03T22:27:15.757Z,10.70
2023-05-03T22:29:42.429Z,10.50
2023-05-03T22:32:09.116Z,10.40
2023-05-03T22:34:36.165Z,10.40
2023-05-03T22:37:03.044Z,10.40
2023-05-03T22:39:29.758Z,10.40
2023-05-03T22:41:56.406Z,10.50
2023-05-03T22:44:23.034Z,10.60
2023-05-03T22:46:49.664Z,10.60
2023-05-03T22:49:16.307Z,10.50
2023-05-03T22:51:42.935Z,10.40
2023-05-03T22:54:10.331Z,10.30
2023-05-03T22:56:37.469Z,10.30
2023-05-03T22:59:04.101Z,10.20
2023-05-03T23:01:30.868Z,10.10
2023-05-03T23:03:57.737Z,10.10
2023-05-03T23:06:25.009Z,10.10
2023-05-03T23:08:51.738Z,10.00
2023-05-03T23:11:18.432Z,10.00
2023-05-03T23:13:45.136Z,9.80
2023-05-03T23:16:11.817Z,9.70
2023-05-03T23:18:38.576Z,9.80
2023-05-03T23:21:05.477Z,9.80
2023-05-03T23:23:32.167Z,9.80
2023-05-03T23:25:58.804Z,9.90
2023-05-03T23:28:25.867Z,9.90
2023-05-03T23:30:53.054Z,9.80
2023-05-03T23:33:20.218Z,9.80
2023-05-03T23:35:48.823Z,9.70
2023-05-03T23:38:15.819Z,9.70
2023-05-03T23:40:42.472Z,9.70
2023-05-03T23:43:09.212Z,9.60
2023-05-03T23:45:35.994Z,9.50
2023-05-03T23:48:02.715Z,9.40
2023-05-03T23:50:29.397Z,9.40
2023-05-03T23:52:56.144Z,9.40
2023-05-03T23:55:22.781Z,9.30
2023-05-03T23:57:49.396Z,9.20
